Menai Bridge, United Kingdom
Current Conditions -  °F | °C
As of 1:50 AM on Monday 24 Nov 2014 (Local Time) from EGOV Reporting Station
Few Clouds Few Clouds  
Wind Chill: 37°   Ceiling: Unl
Heat Index: 43°   Visibility: 6mi
Dew Point: 37°   Wind: 9mph
Humidity: 81%   Direction: 250°WSW
Pressure: 30.21"   Gusts: NA
Location:  53.23°N, 4.17°W
Report Text: EGOV 240150Z AUTO 25008KT 9999 FEW029/// 06/03 Q1023
Loading
Personal Weather Stations






























Interactive Weather Map New forecast layout! Learn more

10-Day Weather Forecast

Advertisements
Track Severe Weather on mobile